Wales, Alaska
Current Conditions -  °F | °C
As of 6:58 AM on Monday 22 Dec 2014 (Local Time) from PAIW Reporting Station
Light Snow Light Snow  
Wind Chill: -15°   Ceiling: 1400
Heat Index:   Visibility: 9mi
Dew Point:   Wind: 20mph
Humidity: 87%   Direction: 340°NNW
Pressure: 30.02"   Gusts: NA
Location:  65.62°N, 168.08°W
Report Text: PAIW 221558Z AUTO 34017KT 9SM -SN OVC014 M15/M17 A3002 RMK AO2 SNB18 SLP167 P0000 T11501167 FZRANO
Loading
Personal Weather Stations






























Interactive Weather Map New forecast layout! Learn more

10-Day Weather Forecast

Advertisements
Track Severe Weather on mobile